sensor_id;sensor_type;location;lat;lon;timestamp;P1;durP1;ratioP1;P2;durP2;ratioP2
6432;SDS011;3249;42.690;23.260;2022-08-19T00:00:06;10.27;;;7.67;;
6432;SDS011;3249;42.690;23.260;2022-08-19T00:02:34;9.40;;;7.67;;
6432;SDS011;3249;42.690;23.260;2022-08-19T00:05:00;11.50;;;8.03;;
6432;SDS011;3249;42.690;23.260;2022-08-19T00:07:26;7.43;;;6.83;;
6432;SDS011;3249;42.690;23.260;2022-08-19T00:09:52;8.03;;;7.30;;
6432;SDS011;3249;42.690;23.260;2022-08-19T00:12:17;9.03;;;7.27;;
6432;SDS011;3249;42.690;23.260;2022-08-19T00:14:43;8.30;;;7.60;;
6432;SDS011;3249;42.690;23.260;2022-08-19T00:17:08;7.97;;;7.27;;
6432;SDS011;3249;42.690;23.260;2022-08-19T00:19:34;7.87;;;7.00;;
6432;SDS011;3249;42.690;23.260;2022-08-19T00:22:01;8.03;;;7.37;;
6432;SDS011;3249;42.690;23.260;2022-08-19T00:24:27;8.93;;;7.50;;
6432;SDS011;3249;42.690;23.260;2022-08-19T00:26:54;7.67;;;7.07;;
6432;SDS011;3249;42.690;23.260;2022-08-19T03:35:44;14.10;;;10.53;;
6432;SDS011;3249;42.690;23.260;2022-08-19T03:38:10;11.60;;;10.20;;
6432;SDS011;3249;42.690;23.260;2022-08-19T03:40:38;13.70;;;10.87;;
6432;SDS011;3249;42.690;23.260;2022-08-19T03:43:03;12.50;;;10.63;;
6432;SDS011;3249;42.690;23.260;2022-08-19T03:45:30;15.80;;;10.67;;
6432;SDS011;3249;42.690;23.260;2022-08-19T03:47:55;21.07;;;11.77;;
6432;SDS011;3249;42.690;23.260;2022-08-19T03:50:21;19.67;;;10.80;;
6432;SDS011;3249;42.690;23.260;2022-08-19T03:52:50;16.10;;;10.67;;
6432;SDS011;3249;42.690;23.260;2022-08-19T03:55:16;11.77;;;10.57;;
6432;SDS011;3249;42.690;23.260;2022-08-19T03:57:42;22.00;;;12.57;;
6432;SDS011;3249;42.690;23.260;2022-08-19T04:00:09;23.30;;;11.97;;
6432;SDS011;3249;42.690;23.260;2022-08-19T04:02:35;21.10;;;12.50;;
6432;SDS011;3249;42.690;23.260;2022-08-19T04:05:01;27.13;;;12.57;;
6432;SDS011;3249;42.690;23.260;2022-08-19T04:07:26;27.63;;;12.73;;
6432;SDS011;3249;42.690;23.260;2022-08-19T04:09:52;19.73;;;11.23;;
6432;SDS011;3249;42.690;23.260;2022-08-19T04:12:18;24.73;;;12.83;;
6432;SDS011;3249;42.690;23.260;2022-08-19T04:14:45;27.23;;;11.60;;
6432;SDS011;3249;42.690;23.260;2022-08-19T04:17:11;23.87;;;11.83;;
6432;SDS011;3249;42.690;23.260;2022-08-19T04:19:39;20.43;;;11.30;;
6432;SDS011;3249;42.690;23.260;2022-08-19T04:22:05;21.73;;;11.77;;
6432;SDS011;3249;42.690;23.260;2022-08-19T04:24:31;17.73;;;11.07;;
6432;SDS011;3249;42.690;23.260;2022-08-19T04:26:59;16.50;;;11.57;;
6432;SDS011;3249;42.690;23.260;2022-08-19T04:29:26;28.60;;;13.50;;
6432;SDS011;3249;42.690;23.260;2022-08-19T04:31:52;27.03;;;12.53;;
6432;SDS011;3249;42.690;23.260;2022-08-19T04:34:20;29.43;;;12.23;;
6432;SDS011;3249;42.690;23.260;2022-08-19T04:36:49;30.17;;;12.70;;
6432;SDS011;3249;42.690;23.260;2022-08-19T04:39:18;20.83;;;11.47;;
6432;SDS011;3249;42.690;23.260;2022-08-19T04:41:46;18.23;;;11.70;;
6432;SDS011;3249;42.690;23.260;2022-08-19T04:44:34;21.03;;;11.90;;
6432;SDS011;3249;42.690;23.260;2022-08-19T04:47:01;19.13;;;11.00;;
6432;SDS011;3249;42.690;23.260;2022-08-19T04:49:30;19.30;;;12.40;;
6432;SDS011;3249;42.690;23.260;2022-08-19T04:51:56;19.17;;;12.23;;
6432;SDS011;3249;42.690;23.260;2022-08-19T04:54:23;16.67;;;12.97;;
6432;SDS011;3249;42.690;23.260;2022-08-19T04:56:50;14.10;;;11.60;;
6432;SDS011;3249;42.690;23.260;2022-08-19T04:59:17;16.97;;;12.33;;
6432;SDS011;3249;42.690;23.260;2022-08-19T05:01:45;25.83;;;14.20;;
6432;SDS011;3249;42.690;23.260;2022-08-19T05:04:14;14.50;;;11.50;;
6432;SDS011;3249;42.690;23.260;2022-08-19T05:06:42;12.10;;;10.90;;
6432;SDS011;3249;42.690;23.260;2022-08-19T05:09:08;11.93;;;10.60;;
6432;SDS011;3249;42.690;23.260;2022-08-19T05:11:34;13.77;;;12.43;;
6432;SDS011;3249;42.690;23.260;2022-08-19T05:14:04;14.27;;;12.57;;
6432;SDS011;3249;42.690;23.260;2022-08-19T05:16:30;15.23;;;13.60;;
6432;SDS011;3249;42.690;23.260;2022-08-19T05:18:56;13.87;;;12.40;;
6432;SDS011;3249;42.690;23.260;2022-08-19T05:21:40;13.70;;;12.27;;
6432;SDS011;3249;42.690;23.260;2022-08-19T05:24:25;13.77;;;11.70;;
6432;SDS011;3249;42.690;23.260;2022-08-19T05:26:51;14.30;;;11.77;;
6432;SDS011;3249;42.690;23.260;2022-08-19T05:29:19;12.87;;;11.67;;
6432;SDS011;3249;42.690;23.260;2022-08-19T05:31:46;10.90;;;9.90;;
6432;SDS011;3249;42.690;23.260;2022-08-19T05:34:14;12.93;;;10.87;;
6432;SDS011;3249;42.690;23.260;2022-08-19T05:36:41;14.80;;;11.57;;
6432;SDS011;3249;42.690;23.260;2022-08-19T05:39:10;18.57;;;11.57;;
6432;SDS011;3249;42.690;23.260;2022-08-19T05:41:42;16.13;;;11.83;;
6432;SDS011;3249;42.690;23.260;2022-08-19T05:44:09;15.60;;;10.90;;
6432;SDS011;3249;42.690;23.260;2022-08-19T05:46:35;17.20;;;12.30;;
6432;SDS011;3249;42.690;23.260;2022-08-19T05:49:02;16.20;;;11.80;;
6432;SDS011;3249;42.690;23.260;2022-08-19T05:51:32;13.37;;;12.00;;
6432;SDS011;3249;42.690;23.260;2022-08-19T05:54:00;17.10;;;13.33;;
6432;SDS011;3249;42.690;23.260;2022-08-19T05:56:30;16.80;;;12.40;;
6432;SDS011;3249;42.690;23.260;2022-08-19T05:58:57;14.57;;;12.90;;
6432;SDS011;3249;42.690;23.260;2022-08-19T06:01:24;19.27;;;15.63;;
6432;SDS011;3249;42.690;23.260;2022-08-19T06:03:51;17.77;;;15.90;;
6432;SDS011;3249;42.690;23.260;2022-08-19T06:06:16;19.17;;;15.37;;
6432;SDS011;3249;42.690;23.260;2022-08-19T06:08:42;29.83;;;15.93;;
6432;SDS011;3249;42.690;23.260;2022-08-19T06:11:20;21.23;;;16.27;;
6432;SDS011;3249;42.690;23.260;2022-08-19T06:13:50;22.53;;;17.40;;
6432;SDS011;3249;42.690;23.260;2022-08-19T06:16:20;18.60;;;14.87;;
6432;SDS011;3249;42.690;23.260;2022-08-19T06:18:50;22.83;;;15.43;;
6432;SDS011;3249;42.690;23.260;2022-08-19T06:21:20;15.67;;;14.00;;
6432;SDS011;3249;42.690;23.260;2022-08-19T06:23:47;15.40;;;13.83;;
6432;SDS011;3249;42.690;23.260;2022-08-19T06:26:14;14.43;;;12.90;;
6432;SDS011;3249;42.690;23.260;2022-08-19T06:28:40;21.53;;;13.27;;
6432;SDS011;3249;42.690;23.260;2022-08-19T06:31:09;16.83;;;13.13;;
6432;SDS011;3249;42.690;23.260;2022-08-19T06:33:35;14.80;;;13.37;;
6432;SDS011;3249;42.690;23.260;2022-08-19T06:36:02;15.53;;;12.60;;
6432;SDS011;3249;42.690;23.260;2022-08-19T06:38:27;17.47;;;13.23;;
6432;SDS011;3249;42.690;23.260;2022-08-19T06:41:00;20.90;;;14.57;;
6432;SDS011;3249;42.690;23.260;2022-08-19T06:43:26;18.20;;;16.03;;
6432;SDS011;3249;42.690;23.260;2022-08-19T06:45:52;20.97;;;18.73;;
6432;SDS011;3249;42.690;23.260;2022-08-19T06:48:17;23.83;;;18.43;;
6432;SDS011;3249;42.690;23.260;2022-08-19T06:50:43;18.83;;;14.23;;
6432;SDS011;3249;42.690;23.260;2022-08-19T06:53:08;15.67;;;12.20;;
6432;SDS011;3249;42.690;23.260;2022-08-19T06:55:34;16.03;;;12.73;;
6432;SDS011;3249;42.690;23.260;2022-08-19T06:58:03;12.73;;;11.57;;
6432;SDS011;3249;42.690;23.260;2022-08-19T07:00:31;14.93;;;13.23;;
6432;SDS011;3249;42.690;23.260;2022-08-19T07:02:57;24.13;;;15.77;;
6432;SDS011;3249;42.690;23.260;2022-08-19T07:05:23;16.07;;;12.77;;
6432;SDS011;3249;42.690;23.260;2022-08-19T07:07:49;14.93;;;12.50;;
6432;SDS011;3249;42.690;23.260;2022-08-19T07:10:15;13.30;;;11.93;;
6432;SDS011;3249;42.690;23.260;2022-08-19T07:12:40;17.67;;;11.80;;
6432;SDS011;3249;42.690;23.260;2022-08-19T07:15:06;14.03;;;12.07;;
6432;SDS011;3249;42.690;23.260;2022-08-19T07:17:33;19.87;;;12.40;;
6432;SDS011;3249;42.690;23.260;2022-08-19T07:20:04;16.50;;;12.47;;
6432;SDS011;3249;42.690;23.260;2022-08-19T07:22:32;16.97;;;11.50;;
6432;SDS011;3249;42.690;23.260;2022-08-19T07:24:59;18.53;;;12.47;;
6432;SDS011;3249;42.690;23.260;2022-08-19T07:27:24;15.10;;;12.17;;
6432;SDS011;3249;42.690;23.260;2022-08-19T07:29:50;16.57;;;11.97;;
6432;SDS011;3249;42.690;23.260;2022-08-19T07:32:17;19.63;;;12.20;;
6432;SDS011;3249;42.690;23.260;2022-08-19T07:34:42;19.43;;;12.53;;
6432;SDS011;3249;42.690;23.260;2022-08-19T07:37:08;14.90;;;11.70;;
6432;SDS011;3249;42.690;23.260;2022-08-19T07:39:34;16.10;;;12.20;;
6432;SDS011;3249;42.690;23.260;2022-08-19T07:42:02;17.03;;;11.47;;
6432;SDS011;3249;42.690;23.260;2022-08-19T07:44:31;14.30;;;10.77;;
6432;SDS011;3249;42.690;23.260;2022-08-19T07:46:59;17.43;;;11.87;;
6432;SDS011;3249;42.690;23.260;2022-08-19T07:49:26;16.43;;;11.13;;
6432;SDS011;3249;42.690;23.260;2022-08-19T07:51:54;15.03;;;10.90;;
6432;SDS011;3249;42.690;23.260;2022-08-19T07:54:23;12.73;;;10.10;;
6432;SDS011;3249;42.690;23.260;2022-08-19T07:56:51;13.67;;;9.90;;
6432;SDS011;3249;42.690;23.260;2022-08-19T07:59:18;11.57;;;9.90;;
6432;SDS011;3249;42.690;23.260;2022-08-19T08:01:44;11.83;;;8.83;;
6432;SDS011;3249;42.690;23.260;2022-08-19T08:04:10;11.27;;;9.37;;
6432;SDS011;3249;42.690;23.260;2022-08-19T08:06:54;11.00;;;9.53;;
6432;SDS011;3249;42.690;23.260;2022-08-19T08:09:40;11.63;;;8.53;;
6432;SDS011;3249;42.690;23.260;2022-08-19T08:14:39;9.20;;;8.30;;
6432;SDS011;3249;42.690;23.260;2022-08-19T08:17:08;11.23;;;9.57;;
6432;SDS011;3249;42.690;23.260;2022-08-19T08:19:35;13.10;;;9.87;;
6432;SDS011;3249;42.690;23.260;2022-08-19T08:22:01;16.93;;;9.10;;
6432;SDS011;3249;42.690;23.260;2022-08-19T08:24:29;13.83;;;8.97;;
6432;SDS011;3249;42.690;23.260;2022-08-19T08:26:59;15.40;;;9.87;;
6432;SDS011;3249;42.690;23.260;2022-08-19T08:29:29;9.90;;;8.33;;
6432;SDS011;3249;42.690;23.260;2022-08-19T08:31:55;13.43;;;8.43;;
6432;SDS011;3249;42.690;23.260;2022-08-19T08:34:21;14.77;;;7.80;;
6432;SDS011;3249;42.690;23.260;2022-08-19T08:36:47;11.97;;;7.60;;
6432;SDS011;3249;42.690;23.260;2022-08-19T08:39:14;11.37;;;8.03;;
6432;SDS011;3249;42.690;23.260;2022-08-19T08:47:02;10.83;;;8.00;;
6432;SDS011;3249;42.690;23.260;2022-08-19T08:52:13;11.80;;;7.57;;
6432;SDS011;3249;42.690;23.260;2022-08-19T08:54:44;8.60;;;7.33;;
6432;SDS011;3249;42.690;23.260;2022-08-19T08:57:15;11.60;;;7.97;;
6432;SDS011;3249;42.690;23.260;2022-08-19T08:59:48;8.47;;;7.67;;
6432;SDS011;3249;42.690;23.260;2022-08-19T09:02:18;10.37;;;7.70;;
6432;SDS011;3249;42.690;23.260;2022-08-19T09:04:44;8.67;;;6.90;;
6432;SDS011;3249;42.690;23.260;2022-08-19T09:07:14;7.90;;;6.37;;
6432;SDS011;3249;42.690;23.260;2022-08-19T09:09:57;11.17;;;6.87;;
6432;SDS011;3249;42.690;23.260;2022-08-19T09:12:39;9.53;;;6.93;;
6432;SDS011;3249;42.690;23.260;2022-08-19T09:15:12;11.27;;;7.67;;
6432;SDS011;3249;42.690;23.260;2022-08-19T09:17:39;10.73;;;7.60;;
6432;SDS011;3249;42.690;23.260;2022-08-19T09:22:48;9.20;;;7.90;;
6432;SDS011;3249;42.690;23.260;2022-08-19T09:25:17;6.10;;;5.70;;
6432;SDS011;3249;42.690;23.260;2022-08-19T09:27:47;7.63;;;5.97;;
6432;SDS011;3249;42.690;23.260;2022-08-19T09:30:24;59.83;;;44.17;;
6432;SDS011;3249;42.690;23.260;2022-08-19T09:32:53;6.13;;;5.50;;
6432;SDS011;3249;42.690;23.260;2022-08-19T09:35:21;10.87;;;6.70;;
6432;SDS011;3249;42.690;23.260;2022-08-19T09:37:48;11.30;;;10.23;;
6432;SDS011;3249;42.690;23.260;2022-08-19T09:40:14;6.77;;;6.10;;
6432;SDS011;3249;42.690;23.260;2022-08-19T09:42:40;5.97;;;5.50;;
6432;SDS011;3249;42.690;23.260;2022-08-19T09:45:08;6.43;;;5.17;;
6432;SDS011;3249;42.690;23.260;2022-08-19T09:47:34;7.20;;;5.53;;
6432;SDS011;3249;42.690;23.260;2022-08-19T09:50:03;6.00;;;5.50;;
6432;SDS011;3249;42.690;23.260;2022-08-19T09:52:30;7.43;;;5.93;;
6432;SDS011;3249;42.690;23.260;2022-08-19T09:54:56;6.30;;;5.17;;
6432;SDS011;3249;42.690;23.260;2022-08-19T09:57:21;7.27;;;5.50;;
6432;SDS011;3249;42.690;23.260;2022-08-19T09:59:47;6.27;;;5.53;;
6432;SDS011;3249;42.690;23.260;2022-08-19T10:02:13;9.17;;;5.43;;
6432;SDS011;3249;42.690;23.260;2022-08-19T10:04:38;5.93;;;5.43;;
6432;SDS011;3249;42.690;23.260;2022-08-19T10:07:22;6.67;;;5.53;;
6432;SDS011;3249;42.690;23.260;2022-08-19T10:09:48;6.37;;;5.77;;
6432;SDS011;3249;42.690;23.260;2022-08-19T10:12:13;5.77;;;5.33;;
6432;SDS011;3249;42.690;23.260;2022-08-19T10:14:40;5.63;;;5.13;;
6432;SDS011;3249;42.690;23.260;2022-08-19T10:17:05;5.70;;;5.30;;
6432;SDS011;3249;42.690;23.260;2022-08-19T10:19:31;8.50;;;6.10;;
6432;SDS011;3249;42.690;23.260;2022-08-19T10:22:02;7.80;;;6.63;;
6432;SDS011;3249;42.690;23.260;2022-08-19T10:24:29;6.77;;;6.17;;
6432;SDS011;3249;42.690;23.260;2022-08-19T10:26:55;6.23;;;5.83;;
6432;SDS011;3249;42.690;23.260;2022-08-19T10:29:22;5.83;;;5.43;;
6432;SDS011;3249;42.690;23.260;2022-08-19T10:31:47;6.57;;;5.90;;
6432;SDS011;3249;42.690;23.260;2022-08-19T10:34:13;6.00;;;5.50;;
6432;SDS011;3249;42.690;23.260;2022-08-19T10:36:38;6.30;;;5.80;;
6432;SDS011;3249;42.690;23.260;2022-08-19T10:39:05;6.00;;;5.60;;
6432;SDS011;3249;42.690;23.260;2022-08-19T10:41:34;7.80;;;6.27;;
6432;SDS011;3249;42.690;23.260;2022-08-19T10:44:04;8.60;;;4.93;;
6432;SDS011;3249;42.690;23.260;2022-08-19T10:46:32;6.63;;;6.00;;
6432;SDS011;3249;42.690;23.260;2022-08-19T10:49:02;6.33;;;5.83;;
6432;SDS011;3249;42.690;23.260;2022-08-19T10:51:29;7.43;;;6.73;;
6432;SDS011;3249;42.690;23.260;2022-08-19T10:54:14;7.40;;;6.80;;
6432;SDS011;3249;42.690;23.260;2022-08-19T10:56:39;6.23;;;5.83;;
6432;SDS011;3249;42.690;23.260;2022-08-19T10:59:18;7.27;;;6.67;;
6432;SDS011;3249;42.690;23.260;2022-08-19T11:01:46;7.30;;;6.57;;
6432;SDS011;3249;42.690;23.260;2022-08-19T11:04:12;7.53;;;5.90;;
6432;SDS011;3249;42.690;23.260;2022-08-19T11:06:38;7.07;;;6.50;;
6432;SDS011;3249;42.690;23.260;2022-08-19T11:09:06;6.90;;;6.40;;
6432;SDS011;3249;42.690;23.260;2022-08-19T11:11:32;6.90;;;6.40;;
6432;SDS011;3249;42.690;23.260;2022-08-19T11:14:04;7.03;;;6.40;;
6432;SDS011;3249;42.690;23.260;2022-08-19T11:16:30;6.50;;;5.93;;
6432;SDS011;3249;42.690;23.260;2022-08-19T11:18:57;7.03;;;6.07;;
6432;SDS011;3249;42.690;23.260;2022-08-19T11:21:25;6.97;;;6.37;;
6432;SDS011;3249;42.690;23.260;2022-08-19T11:23:54;7.30;;;6.60;;
6432;SDS011;3249;42.690;23.260;2022-08-19T11:26:22;6.87;;;6.40;;
6432;SDS011;3249;42.690;23.260;2022-08-19T11:28:48;7.13;;;6.50;;
6432;SDS011;3249;42.690;23.260;2022-08-19T11:31:18;7.57;;;6.80;;
6432;SDS011;3249;42.690;23.260;2022-08-19T11:33:46;6.73;;;6.20;;
6432;SDS011;3249;42.690;23.260;2022-08-19T11:36:12;7.20;;;6.50;;
6432;SDS011;3249;42.690;23.260;2022-08-19T11:38:38;6.60;;;6.10;;
6432;SDS011;3249;42.690;23.260;2022-08-19T11:41:05;7.00;;;6.43;;
6432;SDS011;3249;42.690;23.260;2022-08-19T11:43:35;6.70;;;6.10;;
6432;SDS011;3249;42.690;23.260;2022-08-19T11:46:05;7.30;;;6.63;;
6432;SDS011;3249;42.690;23.260;2022-08-19T11:48:32;7.37;;;6.63;;
6432;SDS011;3249;42.690;23.260;2022-08-19T11:50:58;7.53;;;6.50;;
6432;SDS011;3249;42.690;23.260;2022-08-19T11:53:24;7.10;;;6.50;;
6432;SDS011;3249;42.690;23.260;2022-08-19T11:55:49;8.13;;;6.10;;
6432;SDS011;3249;42.690;23.260;2022-08-19T11:58:20;9.23;;;6.30;;
6432;SDS011;3249;42.690;23.260;2022-08-19T12:00:46;7.13;;;6.47;;
6432;SDS011;3249;42.690;23.260;2022-08-19T12:03:12;10.00;;;6.50;;
6432;SDS011;3249;42.690;23.260;2022-08-19T12:05:38;7.20;;;6.57;;
6432;SDS011;3249;42.690;23.260;2022-08-19T12:08:05;7.50;;;6.73;;
6432;SDS011;3249;42.690;23.260;2022-08-19T12:10:31;6.87;;;6.27;;
6432;SDS011;3249;42.690;23.260;2022-08-19T12:12:57;8.10;;;6.57;;
6432;SDS011;3249;42.690;23.260;2022-08-19T12:15:22;6.80;;;6.30;;
6432;SDS011;3249;42.690;23.260;2022-08-19T12:17:48;7.90;;;6.77;;
6432;SDS011;3249;42.690;23.260;2022-08-19T12:20:14;7.47;;;6.80;;
6432;SDS011;3249;42.690;23.260;2022-08-19T12:22:42;12.13;;;7.40;;
6432;SDS011;3249;42.690;23.260;2022-08-19T12:25:09;7.57;;;6.63;;
6432;SDS011;3249;42.690;23.260;2022-08-19T12:27:35;8.87;;;6.53;;
6432;SDS011;3249;42.690;23.260;2022-08-19T12:30:05;7.33;;;6.67;;
6432;SDS011;3249;42.690;23.260;2022-08-19T12:32:32;7.53;;;6.03;;
6432;SDS011;3249;42.690;23.260;2022-08-19T12:34:58;8.10;;;6.00;;
6432;SDS011;3249;42.690;23.260;2022-08-19T12:37:23;6.57;;;5.53;;
6432;SDS011;3249;42.690;23.260;2022-08-19T12:39:49;6.87;;;6.30;;
6432;SDS011;3249;42.690;23.260;2022-08-19T12:42:15;8.40;;;6.50;;
6432;SDS011;3249;42.690;23.260;2022-08-19T12:44:41;7.20;;;6.50;;
6432;SDS011;3249;42.690;23.260;2022-08-19T12:47:09;7.10;;;6.40;;
6432;SDS011;3249;42.690;23.260;2022-08-19T12:49:36;7.47;;;6.87;;
6432;SDS011;3249;42.690;23.260;2022-08-19T12:52:06;7.83;;;6.47;;
6432;SDS011;3249;42.690;23.260;2022-08-19T12:54:33;7.43;;;6.93;;
6432;SDS011;3249;42.690;23.260;2022-08-19T12:57:00;7.10;;;6.50;;
6432;SDS011;3249;42.690;23.260;2022-08-19T12:59:29;8.60;;;7.73;;
6432;SDS011;3249;42.690;23.260;2022-08-19T13:01:54;6.43;;;5.83;;
6432;SDS011;3249;42.690;23.260;2022-08-19T13:04:20;7.13;;;6.57;;
6432;SDS011;3249;42.690;23.260;2022-08-19T13:06:45;6.90;;;6.30;;
6432;SDS011;3249;42.690;23.260;2022-08-19T13:09:11;7.30;;;6.60;;
6432;SDS011;3249;42.690;23.260;2022-08-19T13:11:36;7.07;;;6.53;;
6432;SDS011;3249;42.690;23.260;2022-08-19T13:14:03;7.97;;;6.70;;
6432;SDS011;3249;42.690;23.260;2022-08-19T13:16:29;7.83;;;6.57;;
6432;SDS011;3249;42.690;23.260;2022-08-19T13:18:55;6.80;;;6.30;;
6432;SDS011;3249;42.690;23.260;2022-08-19T13:21:23;15.07;;;6.70;;
6432;SDS011;3249;42.690;23.260;2022-08-19T13:23:51;6.60;;;6.00;;
6432;SDS011;3249;42.690;23.260;2022-08-19T13:26:17;7.27;;;6.13;;
6432;SDS011;3249;42.690;23.260;2022-08-19T13:28:43;6.00;;;5.70;;
6432;SDS011;3249;42.690;23.260;2022-08-19T13:31:45;7.50;;;6.43;;
6432;SDS011;3249;42.690;23.260;2022-08-19T13:34:30;6.47;;;6.07;;
6432;SDS011;3249;42.690;23.260;2022-08-19T13:36:59;7.20;;;6.50;;
6432;SDS011;3249;42.690;23.260;2022-08-19T13:39:27;7.50;;;6.80;;
6432;SDS011;3249;42.690;23.260;2022-08-19T13:41:54;6.67;;;6.17;;
6432;SDS011;3249;42.690;23.260;2022-08-19T13:44:20;8.50;;;7.43;;
6432;SDS011;3249;42.690;23.260;2022-08-19T13:46:46;8.33;;;6.27;;
6432;SDS011;3249;42.690;23.260;2022-08-19T13:49:14;16.17;;;7.17;;
6432;SDS011;3249;42.690;23.260;2022-08-19T13:51:41;9.13;;;6.33;;
6432;SDS011;3249;42.690;23.260;2022-08-19T13:54:08;7.03;;;6.43;;
6432;SDS011;3249;42.690;23.260;2022-08-19T13:56:35;7.23;;;6.53;;
6432;SDS011;3249;42.690;23.260;2022-08-19T13:59:04;8.03;;;6.20;;
6432;SDS011;3249;42.690;23.260;2022-08-19T14:01:29;9.10;;;6.73;;
6432;SDS011;3249;42.690;23.260;2022-08-19T14:03:55;7.40;;;6.67;;
6432;SDS011;3249;42.690;23.260;2022-08-19T14:06:21;9.50;;;6.47;;
6432;SDS011;3249;42.690;23.260;2022-08-19T14:08:47;8.93;;;6.37;;
6432;SDS011;3249;42.690;23.260;2022-08-19T14:11:12;7.70;;;6.43;;
6432;SDS011;3249;42.690;23.260;2022-08-19T14:13:38;7.23;;;6.63;;
6432;SDS011;3249;42.690;23.260;2022-08-19T14:16:11;9.40;;;6.87;;
6432;SDS011;3249;42.690;23.260;2022-08-19T14:18:38;7.93;;;7.23;;
6432;SDS011;3249;42.690;23.260;2022-08-19T14:21:04;7.13;;;6.53;;
6432;SDS011;3249;42.690;23.260;2022-08-19T14:23:31;6.87;;;6.30;;
6432;SDS011;3249;42.690;23.260;2022-08-19T14:26:08;8.53;;;7.00;;
6432;SDS011;3249;42.690;23.260;2022-08-19T14:28:36;7.13;;;6.47;;
6432;SDS011;3249;42.690;23.260;2022-08-19T14:31:02;7.50;;;6.80;;
6432;SDS011;3249;42.690;23.260;2022-08-19T14:33:27;7.87;;;7.17;;
6432;SDS011;3249;42.690;23.260;2022-08-19T14:35:53;6.93;;;6.33;;
6432;SDS011;3249;42.690;23.260;2022-08-19T14:38:18;10.90;;;7.40;;
6432;SDS011;3249;42.690;23.260;2022-08-19T14:40:45;10.67;;;7.00;;
6432;SDS011;3249;42.690;23.260;2022-08-19T14:43:10;7.50;;;6.90;;
6432;SDS011;3249;42.690;23.260;2022-08-19T14:45:37;8.63;;;7.90;;
6432;SDS011;3249;42.690;23.260;2022-08-19T14:48:04;7.63;;;7.13;;
6432;SDS011;3249;42.690;23.260;2022-08-19T14:50:30;8.40;;;6.93;;
6432;SDS011;3249;42.690;23.260;2022-08-19T14:53:02;8.30;;;6.70;;
6432;SDS011;3249;42.690;23.260;2022-08-19T14:55:30;9.07;;;7.10;;
6432;SDS011;3249;42.690;23.260;2022-08-19T14:57:57;7.10;;;6.50;;
6432;SDS011;3249;42.690;23.260;2022-08-19T15:00:23;8.57;;;6.90;;
6432;SDS011;3249;42.690;23.260;2022-08-19T15:02:49;7.60;;;7.10;;
6432;SDS011;3249;42.690;23.260;2022-08-19T15:05:15;7.60;;;7.00;;
6432;SDS011;3249;42.690;23.260;2022-08-19T15:07:41;7.53;;;6.63;;
6432;SDS011;3249;42.690;23.260;2022-08-19T15:10:08;10.53;;;6.93;;
6432;SDS011;3249;42.690;23.260;2022-08-19T15:12:36;8.00;;;7.30;;
6432;SDS011;3249;42.690;23.260;2022-08-19T15:15:05;8.77;;;6.70;;
6432;SDS011;3249;42.690;23.260;2022-08-19T15:17:32;7.07;;;6.47;;
6432;SDS011;3249;42.690;23.260;2022-08-19T15:19:58;7.87;;;6.60;;
6432;SDS011;3249;42.690;23.260;2022-08-19T15:22:23;7.80;;;7.00;;
6432;SDS011;3249;42.690;23.260;2022-08-19T15:24:48;9.10;;;7.23;;
6432;SDS011;3249;42.690;23.260;2022-08-19T15:27:14;7.67;;;6.73;;
6432;SDS011;3249;42.690;23.260;2022-08-19T15:29:39;7.67;;;6.97;;
6432;SDS011;3249;42.690;23.260;2022-08-19T15:32:06;7.80;;;6.97;;
6432;SDS011;3249;42.690;23.260;2022-08-19T15:34:33;8.83;;;7.50;;
6432;SDS011;3249;42.690;23.260;2022-08-19T15:36:59;8.33;;;7.03;;
6432;SDS011;3249;42.690;23.260;2022-08-19T15:39:25;8.27;;;7.67;;
6432;SDS011;3249;42.690;23.260;2022-08-19T15:41:51;8.67;;;7.87;;
6432;SDS011;3249;42.690;23.260;2022-08-19T15:44:17;8.60;;;7.63;;
6432;SDS011;3249;42.690;23.260;2022-08-19T15:46:45;9.20;;;7.90;;
6432;SDS011;3249;42.690;23.260;2022-08-19T15:49:12;8.30;;;7.60;;
6432;SDS011;3249;42.690;23.260;2022-08-19T15:51:39;9.33;;;7.23;;
6432;SDS011;3249;42.690;23.260;2022-08-19T15:54:08;14.90;;;7.57;;
6432;SDS011;3249;42.690;23.260;2022-08-19T15:56:36;8.80;;;7.53;;
6432;SDS011;3249;42.690;23.260;2022-08-19T15:59:21;10.07;;;7.50;;
6432;SDS011;3249;42.690;23.260;2022-08-19T16:02:05;10.83;;;7.70;;
6432;SDS011;3249;42.690;23.260;2022-08-19T16:04:50;9.13;;;8.20;;
6432;SDS011;3249;42.690;23.260;2022-08-19T16:07:34;9.70;;;6.70;;
6432;SDS011;3249;42.690;23.260;2022-08-19T16:10:00;8.10;;;7.30;;
6432;SDS011;3249;42.690;23.260;2022-08-19T16:12:25;8.93;;;8.20;;
6432;SDS011;3249;42.690;23.260;2022-08-19T16:14:53;10.40;;;8.00;;
6432;SDS011;3249;42.690;23.260;2022-08-19T16:17:18;14.13;;;7.83;;
6432;SDS011;3249;42.690;23.260;2022-08-19T16:19:44;7.63;;;6.93;;
6432;SDS011;3249;42.690;23.260;2022-08-19T16:22:09;8.00;;;7.20;;
6432;SDS011;3249;42.690;23.260;2022-08-19T16:24:34;8.53;;;7.70;;
6432;SDS011;3249;42.690;23.260;2022-08-19T16:27:00;8.70;;;7.67;;
6432;SDS011;3249;42.690;23.260;2022-08-19T16:29:25;8.20;;;7.50;;
6432;SDS011;3249;42.690;23.260;2022-08-19T16:31:52;8.23;;;7.43;;
6432;SDS011;3249;42.690;23.260;2022-08-19T16:34:19;9.53;;;8.73;;
6432;SDS011;3249;42.690;23.260;2022-08-19T16:36:45;7.90;;;7.30;;
6432;SDS011;3249;42.690;23.260;2022-08-19T16:39:11;8.80;;;8.10;;
6432;SDS011;3249;42.690;23.260;2022-08-19T16:41:39;8.73;;;7.80;;
6432;SDS011;3249;42.690;23.260;2022-08-19T16:44:07;8.70;;;7.53;;
6432;SDS011;3249;42.690;23.260;2022-08-19T16:46:34;8.10;;;7.27;;
6432;SDS011;3249;42.690;23.260;2022-08-19T16:49:02;11.43;;;7.87;;
6432;SDS011;3249;42.690;23.260;2022-08-19T16:51:29;13.23;;;7.37;;
6432;SDS011;3249;42.690;23.260;2022-08-19T16:53:55;12.33;;;10.47;;
6432;SDS011;3249;42.690;23.260;2022-08-19T16:56:22;7.70;;;7.10;;
6432;SDS011;3249;42.690;23.260;2022-08-19T16:58:49;8.57;;;7.67;;
6432;SDS011;3249;42.690;23.260;2022-08-19T17:01:15;9.07;;;7.73;;
6432;SDS011;3249;42.690;23.260;2022-08-19T17:03:42;8.37;;;7.43;;
6432;SDS011;3249;42.690;23.260;2022-08-19T17:06:09;10.37;;;7.43;;
6432;SDS011;3249;42.690;23.260;2022-08-19T17:08:40;13.60;;;8.13;;
6432;SDS011;3249;42.690;23.260;2022-08-19T17:11:06;8.67;;;7.77;;
6432;SDS011;3249;42.690;23.260;2022-08-19T17:13:32;9.47;;;7.00;;
6432;SDS011;3249;42.690;23.260;2022-08-19T17:15:58;8.67;;;7.77;;
6432;SDS011;3249;42.690;23.260;2022-08-19T17:18:24;10.60;;;8.37;;
6432;SDS011;3249;42.690;23.260;2022-08-19T17:20:51;13.10;;;7.77;;
6432;SDS011;3249;42.690;23.260;2022-08-19T17:23:18;11.47;;;7.97;;
6432;SDS011;3249;42.690;23.260;2022-08-19T17:25:46;12.23;;;9.77;;
6432;SDS011;3249;42.690;23.260;2022-08-19T17:28:14;14.93;;;8.63;;
6432;SDS011;3249;42.690;23.260;2022-08-19T17:30:41;12.47;;;8.17;;
6432;SDS011;3249;42.690;23.260;2022-08-19T17:33:07;12.90;;;7.93;;
6432;SDS011;3249;42.690;23.260;2022-08-19T17:35:33;11.80;;;9.07;;
6432;SDS011;3249;42.690;23.260;2022-08-19T17:38:05;12.27;;;8.27;;
6432;SDS011;3249;42.690;23.260;2022-08-19T17:40:33;22.47;;;9.03;;
6432;SDS011;3249;42.690;23.260;2022-08-19T17:42:59;14.63;;;9.47;;
6432;SDS011;3249;42.690;23.260;2022-08-19T17:45:25;23.03;;;10.13;;
6432;SDS011;3249;42.690;23.260;2022-08-19T17:47:51;9.77;;;8.80;;
6432;SDS011;3249;42.690;23.260;2022-08-19T17:50:18;14.17;;;10.20;;
6432;SDS011;3249;42.690;23.260;2022-08-19T17:52:44;16.87;;;10.23;;
6432;SDS011;3249;42.690;23.260;2022-08-19T17:55:09;14.40;;;9.93;;
6432;SDS011;3249;42.690;23.260;2022-08-19T17:57:35;17.57;;;10.77;;
6432;SDS011;3249;42.690;23.260;2022-08-19T18:00:03;14.73;;;9.60;;
6432;SDS011;3249;42.690;23.260;2022-08-19T18:02:30;17.97;;;9.83;;
6432;SDS011;3249;42.690;23.260;2022-08-19T18:04:56;18.00;;;10.50;;
6432;SDS011;3249;42.690;23.260;2022-08-19T18:07:21;17.33;;;11.00;;
6432;SDS011;3249;42.690;23.260;2022-08-19T18:09:47;19.40;;;13.40;;
6432;SDS011;3249;42.690;23.260;2022-08-19T18:12:19;22.30;;;11.43;;